createdAt,value
2022-10-28T00:00:59.706Z,0
2022-10-28T00:03:58.891Z,1.3333333333333333
2022-10-28T00:06:59.027Z,0
2022-10-28T00:09:59.744Z,0.3333333333333333
2022-10-28T00:12:58.723Z,0
2022-10-28T00:15:58.903Z,0
2022-10-28T00:18:58.903Z,0.3333333333333333
2022-10-28T00:21:58.662Z,0
2022-10-28T00:24:59.567Z,0
2022-10-28T00:27:58.768Z,0
2022-10-28T00:30:58.690Z,0.3333333333333333
2022-10-28T00:33:58.635Z,0
2022-10-28T00:36:58.585Z,0
2022-10-28T00:39:58.555Z,0.3333333333333333
2022-10-28T00:42:58.997Z,0.3333333333333333
2022-10-28T00:45:59.055Z,0
2022-10-28T00:49:01.260Z,0
2022-10-28T00:51:58.713Z,0
2022-10-28T00:54:58.855Z,0
2022-10-28T00:57:58.846Z,0.3333333333333333
2022-10-28T01:00:59.032Z,0
2022-10-28T01:03:59.348Z,0.3333333333333333
2022-10-28T01:06:58.598Z,0
2022-10-28T01:09:59.100Z,0
2022-10-28T01:12:58.130Z,0
2022-10-28T01:15:59.092Z,1
2022-10-28T01:18:58.852Z,0
2022-10-28T01:21:58.859Z,0
2022-10-28T01:24:59.413Z,0
2022-10-28T01:27:58.739Z,0
2022-10-28T01:30:58.879Z,0
2022-10-28T01:33:58.610Z,0
2022-10-28T01:36:58.761Z,0
2022-10-28T01:39:58.675Z,0
2022-10-28T01:42:59.583Z,0
2022-10-28T01:45:58.645Z,0
2022-10-28T01:48:59.444Z,0
2022-10-28T01:51:58.566Z,0
2022-10-28T01:54:58.547Z,0.6666666666666666
2022-10-28T01:57:58.527Z,0
2022-10-28T02:00:59.328Z,0
2022-10-28T02:03:58.654Z,0
2022-10-28T02:06:58.649Z,0.3333333333333333
2022-10-28T02:09:58.436Z,0
2022-10-28T02:12:58.258Z,0
2022-10-28T02:15:59.063Z,0
2022-10-28T02:18:59.039Z,0
2022-10-28T02:21:59.084Z,0
2022-10-28T02:24:58.589Z,0
2022-10-28T02:27:58.231Z,0
2022-10-28T02:30:58.934Z,0
2022-10-28T02:33:59.503Z,0
2022-10-28T02:36:58.843Z,1
2022-10-28T02:39:58.725Z,0
2022-10-28T02:42:58.999Z,0
2022-10-28T02:45:59.794Z,0
2022-10-28T02:48:59.048Z,0
2022-10-28T02:51:58.744Z,0.3333333333333333
2022-10-28T02:54:58.543Z,0
2022-10-28T02:57:58.629Z,0
2022-10-28T03:00:59.177Z,0
2022-10-28T03:03:58.681Z,0.6666666666666666
2022-10-28T03:06:59.138Z,0
2022-10-28T03:09:58.499Z,0
2022-10-28T03:12:58.673Z,0.3333333333333333
2022-10-28T03:15:59.064Z,0
2022-10-28T03:18:59.300Z,0
2022-10-28T03:21:58.631Z,0
2022-10-28T03:24:59.119Z,0.3333333333333333
2022-10-28T03:27:59.249Z,0
2022-10-28T03:30:59.229Z,0
2022-10-28T03:33:58.510Z,0
2022-10-28T03:36:58.150Z,0
2022-10-28T03:39:58.387Z,0.3333333333333333
2022-10-28T03:42:58.266Z,0
2022-10-28T03:45:59.009Z,0
2022-10-28T03:48:58.803Z,0
2022-10-28T03:51:59.010Z,0.3333333333333333
2022-10-28T03:54:58.965Z,0
2022-10-28T03:57:58.751Z,0
2022-10-28T04:00:59.558Z,0
2022-10-28T04:03:58.918Z,1.3333333333333333
2022-10-28T04:06:59.193Z,1
2022-10-28T04:09:59.634Z,0
2022-10-28T04:12:59.000Z,0
2022-10-28T04:15:59.123Z,0
2022-10-28T04:18:59.832Z,0
2022-10-28T04:21:58.318Z,0
2022-10-28T04:24:59.293Z,0
2022-10-28T04:27:58.394Z,0
2022-10-28T04:30:58.820Z,0
2022-10-28T04:33:59.195Z,0
2022-10-28T04:36:58.765Z,0
2022-10-28T04:39:58.953Z,0.3333333333333333
2022-10-28T04:42:59.294Z,0
2022-10-28T04:46:06.397Z,0
2022-10-28T04:48:59.089Z,0
2022-10-28T04:51:59.751Z,0
2022-10-28T04:54:59.343Z,0.3333333333333333
2022-10-28T04:57:58.864Z,0
2022-10-28T05:00:59.112Z,0
2022-10-28T05:03:59.199Z,0
2022-10-28T05:07:00.041Z,0
2022-10-28T05:09:59.211Z,0
2022-10-28T05:12:59.703Z,0
2022-10-28T05:15:59.688Z,0
2022-10-28T05:18:59.772Z,0.3333333333333333
2022-10-28T05:21:59.246Z,0.3333333333333333
2022-10-28T05:24:59.505Z,0
2022-10-28T05:27:59.464Z,0
2022-10-28T05:31:00.174Z,0
2022-10-28T05:33:58.542Z,0
2022-10-28T05:36:59.008Z,0
2022-10-28T05:39:59.374Z,0
2022-10-28T05:42:59.136Z,0
2022-10-28T05:45:59.217Z,1
2022-10-28T05:48:58.631Z,1
2022-10-28T05:51:59.355Z,2
2022-10-28T05:54:59.534Z,3.3333333333333335
2022-10-28T05:57:59.259Z,3.6666666666666665
2022-10-28T06:01:00.133Z,6
2022-10-28T06:03:59.198Z,6.333333333333333
2022-10-28T06:06:59.482Z,8.333333333333334
2022-10-28T06:09:59.438Z,10.333333333333334
2022-10-28T06:12:57.324Z,12.333333333333334
2022-10-28T06:15:57.410Z,15
2022-10-28T06:18:58.110Z,19
2022-10-28T06:21:57.513Z,23.333333333333332
2022-10-28T06:24:57.163Z,26.333333333333332
2022-10-28T06:27:57.613Z,27
2022-10-28T06:30:57.797Z,31.333333333333332
2022-10-28T06:33:56.862Z,35
2022-10-28T06:36:57.096Z,39.333333333333336
2022-10-28T06:39:56.835Z,41
2022-10-28T06:42:57.027Z,39.666666666666664
2022-10-28T06:45:57.896Z,40
2022-10-28T06:48:59.420Z,43
2022-10-28T06:51:59.476Z,48.333333333333336
2022-10-28T06:54:59.251Z,54.333333333333336
2022-10-28T06:57:58.534Z,61.333333333333336
2022-10-28T07:00:59.145Z,75.66666666666667
2022-10-28T07:03:58.267Z,92.33333333333333
2022-10-28T07:06:58.734Z,106.66666666666667
2022-10-28T07:09:59.252Z,115
2022-10-28T07:12:59.206Z,122.33333333333333
2022-10-28T07:15:59.702Z,132.66666666666666
2022-10-28T07:18:59.110Z,149
2022-10-28T07:21:58.872Z,166.33333333333334
2022-10-28T07:24:58.824Z,184.33333333333334
2022-10-28T07:27:59.629Z,199.33333333333334
2022-10-28T07:30:59.121Z,215
2022-10-28T07:33:58.935Z,238.33333333333334
2022-10-28T07:46:01.312Z,372.3333333333333
2022-10-28T07:48:58.441Z,383.6666666666667
2022-10-28T07:51:58.731Z,382
2022-10-28T07:54:58.293Z,352.6666666666667
2022-10-28T07:57:58.777Z,307
2022-10-28T08:00:59.523Z,281
2022-10-28T08:03:58.469Z,261.6666666666667
2022-10-28T08:06:58.722Z,279
2022-10-28T08:09:58.994Z,296.3333333333333
2022-10-28T08:12:59.202Z,330.6666666666667
2022-10-28T08:15:59.277Z,337.6666666666667
2022-10-28T08:18:58.841Z,373.6666666666667
2022-10-28T08:28:02.078Z,483.3333333333333
2022-10-28T08:31:08.181Z,473
2022-10-28T08:33:58.582Z,487.6666666666667
2022-10-28T08:36:58.474Z,470
2022-10-28T08:39:58.965Z,457.3333333333333
2022-10-28T08:42:58.689Z,486.6666666666667
2022-10-28T08:45:58.734Z,454
2022-10-28T08:48:58.489Z,410.6666666666667
2022-10-28T08:51:58.608Z,385.6666666666667
2022-10-28T08:54:58.485Z,389
2022-10-28T08:57:58.645Z,410.3333333333333
2022-10-28T09:00:59.075Z,427.6666666666667
2022-10-28T09:03:58.573Z,459.6666666666667
2022-10-28T09:06:58.930Z,493.3333333333333
2022-10-28T09:09:59.359Z,517.3333333333334
2022-10-28T09:12:58.419Z,529
2022-10-28T09:15:59.388Z,512
2022-10-28T09:18:58.780Z,513.3333333333334
2022-10-28T09:21:58.291Z,519
2022-10-28T09:24:58.599Z,528.6666666666666
2022-10-28T09:27:58.530Z,525.6666666666666
2022-10-28T09:30:59.486Z,503
2022-10-28T09:33:58.815Z,459.6666666666667
2022-10-28T09:36:59.097Z,404
2022-10-28T09:39:59.014Z,365
2022-10-28T09:42:59.239Z,383
2022-10-28T09:45:58.761Z,434.6666666666667
2022-10-28T09:48:59.272Z,523.6666666666666
2022-10-28T09:51:59.040Z,586.6666666666666
2022-10-28T09:54:59.008Z,563
2022-10-28T09:57:59.339Z,497
2022-10-28T10:01:03.575Z,566
2022-10-28T10:03:58.785Z,603
2022-10-28T10:06:59.070Z,604.3333333333334
2022-10-28T10:09:59.452Z,588
2022-10-28T10:12:59.066Z,580
2022-10-28T10:15:58.593Z,571.3333333333334
2022-10-28T10:18:58.621Z,564.6666666666666
2022-10-28T10:21:59.214Z,528
2022-10-28T10:24:59.182Z,574.3333333333334
2022-10-28T10:27:59.392Z,583
2022-10-28T10:30:58.773Z,592.6666666666666
2022-10-28T10:33:58.699Z,611.3333333333334
2022-10-28T10:36:59.199Z,649
2022-10-28T10:39:59.235Z,679
2022-10-28T10:43:12.908Z,714.6666666666666
2022-10-28T10:45:58.766Z,755
2022-10-28T10:48:59.196Z,790.6666666666666
2022-10-28T10:51:59.012Z,687.3333333333334
2022-10-28T10:54:58.376Z,614
2022-10-28T10:57:59.174Z,604
2022-10-28T11:00:59.735Z,579.3333333333334
2022-10-28T11:04:18.216Z,577
2022-10-28T11:06:58.749Z,572.3333333333334
2022-10-28T11:09:58.729Z,557.6666666666666
2022-10-28T11:12:59.016Z,547
2022-10-28T11:15:58.803Z,547.6666666666666
2022-10-28T11:18:59.280Z,555.6666666666666
2022-10-28T11:21:58.598Z,558.3333333333334
2022-10-28T11:24:58.738Z,576.3333333333334
2022-10-28T11:28:01.568Z,596.6666666666666
2022-10-28T11:30:59.730Z,602.6666666666666
2022-10-28T11:33:58.652Z,607.3333333333334
2022-10-28T11:36:59.110Z,606.6666666666666
2022-10-28T11:39:58.617Z,620
2022-10-28T11:42:58.606Z,661
2022-10-28T11:45:58.912Z,670
2022-10-28T11:48:59.476Z,636
2022-10-28T11:51:58.537Z,566.3333333333334
2022-10-28T11:54:58.640Z,550.3333333333334
2022-10-28T11:57:59.284Z,600.6666666666666
2022-10-28T12:00:59.465Z,627
2022-10-28T12:03:58.911Z,645.3333333333334
2022-10-28T12:06:58.284Z,652
2022-10-28T12:09:59.607Z,629.3333333333334
2022-10-28T12:12:59.344Z,667.3333333333334
2022-10-28T12:15:58.717Z,649.6666666666666
2022-10-28T12:18:59.083Z,604.6666666666666
2022-10-28T12:21:58.613Z,572
2022-10-28T12:24:58.864Z,558.3333333333334
2022-10-28T12:27:58.907Z,554
2022-10-28T12:30:58.648Z,558.6666666666666
2022-10-28T12:33:58.711Z,599
2022-10-28T12:36:58.958Z,525.6666666666666
2022-10-28T12:39:59.825Z,532.6666666666666
2022-10-28T12:42:58.745Z,546
2022-10-28T12:45:59.141Z,546
2022-10-28T12:48:59.398Z,503.3333333333333
2022-10-28T12:51:58.398Z,491.6666666666667
2022-10-28T12:54:59.282Z,488.6666666666667
2022-10-28T12:58:00.014Z,455
2022-10-28T13:00:59.440Z,426.6666666666667
2022-10-28T13:03:59.114Z,418.3333333333333
2022-10-28T13:06:58.270Z,417.3333333333333
2022-10-28T13:09:59.189Z,422.6666666666667
2022-10-28T13:12:59.060Z,418.3333333333333
2022-10-28T13:15:59.212Z,406.3333333333333
2022-10-28T13:18:59.158Z,392.3333333333333
2022-10-28T13:21:59.236Z,389.3333333333333
2022-10-28T13:24:58.560Z,391.6666666666667
2022-10-28T13:27:58.349Z,390.3333333333333
2022-10-28T13:30:58.794Z,402.3333333333333
2022-10-28T13:33:58.503Z,454.6666666666667
2022-10-28T13:36:58.781Z,497
2022-10-28T13:39:59.438Z,460.6666666666667
2022-10-28T13:42:58.765Z,461.3333333333333
2022-10-28T13:45:58.726Z,450.3333333333333
2022-10-28T13:48:58.305Z,467.3333333333333
2022-10-28T13:51:59.033Z,448.6666666666667
2022-10-28T13:54:58.795Z,418.3333333333333
2022-10-28T13:57:58.613Z,431.6666666666667
2022-10-28T14:00:58.537Z,427
2022-10-28T14:03:58.937Z,433.6666666666667
2022-10-28T14:06:59.104Z,454.6666666666667
2022-10-28T14:09:59.353Z,464.3333333333333
2022-10-28T14:12:59.889Z,443.6666666666667
2022-10-28T14:15:59.794Z,415.3333333333333
2022-10-28T14:18:59.007Z,386
2022-10-28T14:22:02.096Z,348
2022-10-28T14:24:58.756Z,314.3333333333333
2022-10-28T14:27:58.616Z,287.3333333333333
2022-10-28T14:30:59.139Z,261.6666666666667
2022-10-28T14:33:59.389Z,241.33333333333334
2022-10-28T14:36:59.031Z,228.33333333333334
2022-10-28T14:39:59.437Z,222.66666666666666
2022-10-28T14:42:58.938Z,224
2022-10-28T14:45:58.844Z,218
2022-10-28T14:48:59.157Z,206.66666666666666
2022-10-28T14:51:58.656Z,192.66666666666666
2022-10-28T14:54:58.859Z,184.66666666666666
2022-10-28T14:57:59.605Z,170.66666666666666
2022-10-28T15:00:58.732Z,154.66666666666666
2022-10-28T15:03:58.736Z,141.66666666666666
2022-10-28T15:06:58.359Z,125.33333333333333
2022-10-28T15:09:58.977Z,111.33333333333333
2022-10-28T15:12:59.569Z,94.66666666666667
2022-10-28T15:16:02.185Z,76.66666666666667
2022-10-28T15:18:58.542Z,64.66666666666667
2022-10-28T15:21:59.394Z,56
2022-10-28T15:24:58.242Z,50.666666666666664
2022-10-28T15:27:58.548Z,47.333333333333336
2022-10-28T15:30:59.098Z,41.333333333333336
2022-10-28T15:33:59.135Z,36
2022-10-28T15:40:04.489Z,29
2022-10-28T15:42:59.146Z,25.666666666666668
2022-10-28T15:45:59.092Z,22
2022-10-28T15:48:59.363Z,18
2022-10-28T15:51:59.887Z,15.333333333333334
2022-10-28T15:54:59.081Z,11.666666666666666
2022-10-28T15:57:59.895Z,8.333333333333334
2022-10-28T16:01:26.464Z,6.666666666666667
2022-10-28T16:03:59.823Z,4.666666666666667
2022-10-28T16:06:59.514Z,3
2022-10-28T16:10:02.497Z,2
2022-10-28T16:13:00.398Z,1.3333333333333333
2022-10-28T16:16:01.476Z,1
2022-10-28T16:18:58.798Z,1
2022-10-28T16:21:59.480Z,0
2022-10-28T16:24:58.540Z,0
2022-10-28T16:27:59.145Z,0
2022-10-28T16:30:59.375Z,0
2022-10-28T16:33:58.339Z,0
2022-10-28T16:36:58.747Z,0.6666666666666666
2022-10-28T16:39:59.540Z,0
2022-10-28T16:42:59.219Z,0
2022-10-28T16:45:59.240Z,0
2022-10-28T16:48:59.286Z,0
2022-10-28T16:51:58.558Z,0.3333333333333333
2022-10-28T16:54:58.692Z,0
2022-10-28T16:57:58.834Z,0
2022-10-28T17:00:59.067Z,0
2022-10-28T17:03:58.897Z,0
2022-10-28T17:06:58.818Z,0
2022-10-28T17:09:59.467Z,0
2022-10-28T17:12:58.701Z,0
2022-10-28T17:15:59.283Z,0.3333333333333333
2022-10-28T17:18:59.096Z,0
2022-10-28T17:21:58.773Z,0.3333333333333333
2022-10-28T17:24:59.577Z,0
2022-10-28T17:27:58.813Z,0
2022-10-28T17:30:59.300Z,0
2022-10-28T17:33:58.564Z,0.3333333333333333
2022-10-28T17:36:58.585Z,0
2022-10-28T17:39:59.917Z,0.3333333333333333
2022-10-28T17:42:58.461Z,0
2022-10-28T17:45:59.030Z,0
2022-10-28T17:48:58.680Z,0
2022-10-28T17:51:58.354Z,0
2022-10-28T17:54:58.842Z,0
2022-10-28T17:57:59.137Z,0
2022-10-28T18:01:25.809Z,0
2022-10-28T18:03:59.076Z,0
2022-10-28T18:06:59.148Z,0
2022-10-28T18:09:58.931Z,0
2022-10-28T18:12:58.898Z,0
2022-10-28T18:15:58.957Z,0
2022-10-28T18:18:59.141Z,0
2022-10-28T18:21:59.600Z,0
2022-10-28T18:24:59.073Z,0
2022-10-28T18:27:58.895Z,0
2022-10-28T18:30:59.151Z,0
2022-10-28T18:33:59.888Z,0
2022-10-28T18:36:58.756Z,0
2022-10-28T18:39:59.167Z,0
2022-10-28T18:42:59.670Z,0
2022-10-28T18:45:59.673Z,0.3333333333333333
2022-10-28T18:51:59.309Z,0
2022-10-28T18:54:58.781Z,0
2022-10-28T18:57:59.095Z,0
2022-10-28T19:00:58.830Z,0
2022-10-28T19:03:58.618Z,0
2022-10-28T19:06:58.564Z,0
2022-10-28T19:09:59.236Z,0
2022-10-28T19:12:58.430Z,0
2022-10-28T19:15:58.467Z,0
2022-10-28T19:18:59.319Z,0
2022-10-28T19:21:58.808Z,0
2022-10-28T19:24:59.014Z,0
2022-10-28T19:27:59.036Z,0
2022-10-28T19:30:59.630Z,0
2022-10-28T19:33:58.864Z,0
2022-10-28T19:36:58.921Z,0
2022-10-28T19:39:59.621Z,0
2022-10-28T19:42:58.925Z,0
2022-10-28T19:45:58.940Z,0
2022-10-28T19:48:59.252Z,0.3333333333333333
2022-10-28T19:51:58.801Z,0
2022-10-28T19:54:58.581Z,0
2022-10-28T19:57:59.426Z,0
2022-10-28T20:00:59.575Z,0
2022-10-28T20:03:59.524Z,0
2022-10-28T20:06:58.337Z,0.6666666666666666
2022-10-28T20:12:59.594Z,0
2022-10-28T20:15:58.883Z,0
2022-10-28T20:18:58.335Z,0
2022-10-28T20:21:59.322Z,0
2022-10-28T20:24:58.733Z,0
2022-10-28T20:27:59.333Z,0.3333333333333333
2022-10-28T20:30:59.684Z,0
2022-10-28T20:33:58.340Z,0.6666666666666666
2022-10-28T20:36:58.706Z,0.3333333333333333
2022-10-28T20:40:00.600Z,0
2022-10-28T20:42:58.712Z,0
2022-10-28T20:45:58.620Z,0
2022-10-28T20:48:58.843Z,0
2022-10-28T20:51:58.877Z,0
2022-10-28T20:54:59.113Z,0
2022-10-28T20:57:58.889Z,0
2022-10-28T21:00:59.016Z,0
2022-10-28T21:03:58.694Z,0
2022-10-28T21:06:58.673Z,0
2022-10-28T21:09:59.192Z,0
2022-10-28T21:12:59.339Z,0
2022-10-28T21:15:58.999Z,0
2022-10-28T21:18:58.763Z,0.3333333333333333
2022-10-28T21:21:59.303Z,0
2022-10-28T21:24:59.418Z,0
2022-10-28T21:27:58.893Z,0
2022-10-28T21:30:59.245Z,0.3333333333333333
2022-10-28T21:34:01.747Z,0
2022-10-28T21:36:58.661Z,0
2022-10-28T21:40:00.917Z,0
2022-10-28T21:42:58.381Z,0
2022-10-28T21:45:59.220Z,0
2022-10-28T21:48:58.972Z,0.3333333333333333
2022-10-28T21:51:59.173Z,0
2022-10-28T21:55:00.853Z,0
2022-10-28T21:57:58.961Z,0
2022-10-28T22:00:59.746Z,0
2022-10-28T22:03:58.619Z,0
2022-10-28T22:06:58.667Z,0
2022-10-28T22:09:59.318Z,0
2022-10-28T22:12:58.925Z,0
2022-10-28T22:15:58.803Z,0
2022-10-28T22:18:58.719Z,0
2022-10-28T22:21:58.478Z,0
2022-10-28T22:24:58.908Z,0
2022-10-28T22:27:58.282Z,0
2022-10-28T22:30:58.474Z,1.3333333333333333
2022-10-28T22:33:59.713Z,0
2022-10-28T22:36:58.740Z,0
2022-10-28T22:39:58.716Z,0
2022-10-28T22:42:59.184Z,1.3333333333333333
2022-10-28T22:45:59.152Z,0
2022-10-28T22:48:58.397Z,0
2022-10-28T22:51:58.254Z,0
2022-10-28T22:54:58.730Z,0
2022-10-28T22:57:59.151Z,0
2022-10-28T23:00:59.002Z,0
2022-10-28T23:03:58.691Z,0
2022-10-28T23:06:58.948Z,0
2022-10-28T23:09:58.820Z,0
2022-10-28T23:12:58.812Z,0
2022-10-28T23:15:58.605Z,0
2022-10-28T23:18:59.102Z,0
2022-10-28T23:21:58.830Z,0.3333333333333333
2022-10-28T23:24:58.211Z,0
2022-10-28T23:27:59.547Z,0
2022-10-28T23:30:58.893Z,0
2022-10-28T23:33:59.225Z,0
2022-10-28T23:36:58.788Z,0
2022-10-28T23:39:59.519Z,0
2022-10-28T23:42:58.784Z,0
2022-10-28T23:45:59.197Z,0
2022-10-28T23:48:59.166Z,0
2022-10-28T23:51:59.353Z,0
2022-10-28T23:54:59.197Z,0.3333333333333333
2022-10-28T23:57:59.038Z,0
